Grandeur Of The Seas — C6SE3 — position and weather

sailwx.info

Track history (hours):
 
Tides and Currents Weather Stations Pressure Air Temp Water Temp Dewpoint Dewpoint Depression Visibility Wind Speed Wind Dir Waves Ship Positions

Grandeur Of The Seas

Operator: Royal Caribbean Cruises Ltd

Last reported at 2017-Dec-15 12:06 UTC. Time now 2017-Dec-15 21:56 UTC.
Position N 14°01' W 061°01'.

Type: Ship. MMSI: 311315000.

Date/timePositionNaut miles runAvg speedWind from/ knotsBaromVisibWave heightAir tempDewpointWater temp
2017-Dec-15 12:06N 14°01' W 061°01'1 5.6
2017-Dec-15 11:58N 14°02' W 061°01'1313.5
2017-Dec-15 11:02N 14°08' W 061°13'114.0
2017-Dec-15 10:58N 14°09' W 061°13'2113.4
2017-Dec-15 09:25N 14°27' W 061°24'613.9
2017-Dec-15 09:00N 14°33' W 061°26'713.7
2017-Dec-15 08:31N 14°39' W 061°28'2314.1
2017-Dec-15 06:51N 15°01' W 061°37'613.9
2017-Dec-15 06:23N 15°07' W 061°39'5613.9
2017-Dec-15 02:23N 16°00' W 061°55'1914.0
2017-Dec-15 01:00N 16°19' W 061°58'713.6
2017-Dec-15 00:30N 16°26' W 061°59'42 7.0
2017-Dec-14 18:30N 17°07' W 061°51'0 0.0
2017-Dec-14 17:59N 17°07' W 061°51'0 0.0
2017-Dec-14 17:29N 17°07' W 061°51'0 0.0
2017-Dec-14 16:59N 17°07' W 061°51'0 0.0
2017-Dec-14 16:29N 17°07' W 061°51'0 0.0
2017-Dec-14 15:59N 17°07' W 061°51'0 0.0
2017-Dec-14 14:59N 17°07' W 061°51'0 0.0
2017-Dec-14 14:29N 17°07' W 061°51'0 0.0
2017-Dec-14 13:59N 17°07' W 061°51'0 0.0
2017-Dec-14 13:29N 17°07' W 061°51'0 0.0
2017-Dec-14 12:59N 17°07' W 061°51'0 0.0
2017-Dec-14 12:29N 17°07' W 061°51'0 0.0
2017-Dec-14 12:00N 17°07' W 061°51'1 1.5
2017-Dec-14 11:30N 17°07' W 061°52'3 5.7
2017-Dec-14 11:00N 17°09' W 061°54'714.0
2017-Dec-14 10:30N 17°12' W 062°01'815.2
2017-Dec-14 10:00N 17°15' W 062°08'815.7
2017-Dec-14 09:30N 17°18' W 062°16'815.7
2017-Dec-14 09:01N 17°22' W 062°23'815.7
2017-Dec-14 08:30N 17°25' W 062°30'815.4
2017-Dec-14 08:00N 17°29' W 062°38'1715.5
2017-Dec-14 06:56N 17°36' W 062°53'715.4
2017-Dec-14 06:28N 17°39' W 062°60'815.5
2017-Dec-14 05:57N 17°43' W 063°08'815.3
2017-Dec-14 05:26N 17°46' W 063°15'715.6
2017-Dec-14 04:58N 17°49' W 063°22'815.1
2017-Dec-14 04:28N 17°52' W 063°29'815.7
2017-Dec-14 03:57N 17°56' W 063°37'7315.4
2017-Dec-13 23:12N 18°12' W 064°52'315.3
2017-Dec-13 23:00N 18°14' W 064°54'613.0
2017-Dec-13 22:30N 18°18' W 064°59'2 4.7
2017-Dec-13 21:58N 18°20' W 064°57'0 0.0
2017-Dec-13 21:22N 18°20' W 064°57'0 0.0
2017-Dec-13 20:58N 18°20' W 064°57'0 0.0
2017-Dec-13 20:28N 18°20' W 064°57'0 0.0
2017-Dec-13 19:58N 18°20' W 064°57'0 0.0
2017-Dec-13 19:10N 18°20' W 064°57'0 0.0
2017-Dec-13 18:58N 18°20' W 064°57'0 0.0
2017-Dec-13 18:28N 18°20' W 064°57'0 0.0
2017-Dec-13 17:58N 18°20' W 064°57'0 0.0
2017-Dec-13 17:28N 18°20' W 064°57'0 0.0
2017-Dec-13 16:58N 18°20' W 064°57'0 0.0
2017-Dec-13 16:28N 18°20' W 064°57'0 0.0
2017-Dec-13 15:58N 18°20' W 064°57'0 0.0
2017-Dec-13 15:28N 18°20' W 064°57'0 0.0
2017-Dec-13 14:58N 18°20' W 064°57'0 0.0
2017-Dec-13 14:28N 18°20' W 064°57'0 0.0
2017-Dec-13 13:58N 18°20' W 064°57'0 0.0
2017-Dec-13 13:16N 18°20' W 064°57'0 0.0
2017-Dec-13 12:56N 18°20' W 064°57'0 0.6
2017-Dec-13 12:30N 18°20' W 064°57'5 9.6
2017-Dec-13 12:00N 18°17' W 065°02'611.8
2017-Dec-13 11:29N 18°20' W 065°07'816.4
2017-Dec-13 11:00N 18°27' W 065°11'25716.1
2017-Dec-12 19:00N 22°18' W 067°12'2914.6 200 / 111012.010.8 26.019.928.0
2017-Dec-12 17:00N 22°42' W 067°30'10317.1 200 / 111013.010.8 26.019.928.0
2017-Dec-12 11:00N 24°12' W 068°24'25215.7 210 / 231014.010.8 23.021.527.0
2017-Dec-11 19:00N 27°54' W 070°36'17217.2 020 / 221018.010.8 22.013.425.0
2017-Dec-11 09:00N 30°24' W 072°12'18815.7 290 / 191022.010.8 17.011.525.0
2017-Dec-10 21:00N 33°18' W 073°36'4120.6 310 / 211021.0 12.0 2.925.0
2017-Dec-10 19:00N 33°54' W 074°00'11316.2 290 / 191020.010.8 12.0 2.925.0
2017-Dec-10 12:00N 35°36' W 075°00'8316.7 300 / 201018.010.8 6.5 2.917.0
2017-Dec-10 07:03N 36°49' W 075°48'010.1
2017-Dec-10 07:00N 36°49' W 075°48'510.1
2017-Dec-10 06:29N 36°52' W 075°53'510.0
2017-Dec-10 06:00N 36°56' W 075°58'611.7
2017-Dec-10 05:27N 37°01' W 076°03'10819.0
2017-Dec-09 23:44N 38°48' W 076°25'520.1
2017-Dec-09 23:30N 38°52' W 076°24'918.3
2017-Dec-09 23:00N 39°01' W 076°23'714.8
2017-Dec-09 22:30N 39°09' W 076°24'612.5
2017-Dec-09 22:00N 39°12' W 076°31'4 8.4
2017-Dec-09 21:31N 39°15' W 076°35'1 1.8
2017-Dec-09 20:58N 39°16' W 076°36'0 0.0
2017-Dec-09 20:28N 39°16' W 076°36'0 0.0
2017-Dec-09 19:58N 39°16' W 076°36'0 0.0
2017-Dec-09 19:28N 39°16' W 076°36'0 0.0
2017-Dec-09 18:58N 39°16' W 076°36'0 0.0
2017-Dec-09 18:28N 39°16' W 076°36'0 0.0
2017-Dec-09 17:58N 39°16' W 076°36'0 0.0
2017-Dec-09 17:28N 39°16' W 076°36'0 0.0
2017-Dec-09 16:58N 39°16' W 076°36'0 0.0
2017-Dec-09 16:28N 39°16' W 076°36'0 0.0
2017-Dec-09 15:55N 39°16' W 076°36'0 0.0
2017-Dec-09 15:28N 39°16' W 076°36'0 0.0
2017-Dec-09 14:58N 39°16' W 076°36'0 0.0
2017-Dec-09 14:28N 39°16' W 076°36'0 0.0
2017-Dec-09 13:58N 39°16' W 076°36'0 0.0
2017-Dec-09 13:22N 39°16' W 076°36'0 0.0
2017-Dec-09 12:58N 39°16' W 076°36'0 0.0
2017-Dec-09 12:28N 39°16' W 076°36'0 0.0
2017-Dec-09 11:52N 39°16' W 076°36'1 2.6
2017-Dec-09 11:30N 39°15' W 076°35'4 7.8
2017-Dec-09 11:00N 39°13' W 076°31'611.5
2017-Dec-09 10:30N 39°09' W 076°25'713.5
2017-Dec-09 10:01N 39°03' W 076°23'713.9
2017-Dec-09 09:30N 38°56' W 076°23'815.1
2017-Dec-09 08:59N 38°48' W 076°25'915.1
2017-Dec-09 08:25N 38°39' W 076°25'1215.2
2017-Dec-09 07:38N 38°28' W 076°23'2115.6
2017-Dec-09 06:17N 38°08' W 076°14'717.6
2017-Dec-09 05:53N 38°01' W 076°13'5316.4
2017-Dec-09 02:39N 37°08' W 076°09'417.9
2017-Dec-09 02:26N 37°05' W 076°06'613.6
2017-Dec-09 02:00N 37°00' W 076°02'510.8
2017-Dec-09 01:30N 36°56' W 075°57'5 9.7
2017-Dec-09 00:58N 36°53' W 075°52'8514.3
2017-Dec-08 19:00N 35°36' W 075°06'1212.0 360 / 271013.0 5.4 10.0 7.918.0
2017-Dec-08 18:00N 35°24' W 075°06'16414.9 030 / 261015.0 5.4 12.010.121.0
2017-Dec-08 07:00N 32°42' W 075°36'14014.0 040 / 211016.0 5.4 17.015.325.0
2017-Dec-07 21:00N 30°24' W 076°00'13414.8 260 / 131016.010.8 24.019.426.0
2017-Dec-07 12:00N 28°12' W 076°24'6713.4 240 / 111018.010.8 24.019.427.0
2017-Dec-07 07:00N 27°06' W 076°36'105 7.5 170 / 71019.010.8 24.021.027.0
2017-Dec-06 17:00N 25°48' W 077°54'58 2.9 120 / 101021.010.8 25.022.027.0
2017-Dec-05 21:00N 25°00' W 077°18'0 0.0 100 / 261022.010.8 27.019.327.0
2017-Dec-05 17:00N 25°00' W 077°18'   090 / 111023.010.8 25.020.528.0
Track history (hours):
 
Tides and Currents Weather Stations Pressure Air Temp Water Temp Dewpoint Dewpoint Depression Visibility Wind Speed Wind Dir Waves Ship Positions

Grandeur Of The Seas

Operator: Royal Caribbean Cruises Ltd

Last reported at 2017-Dec-15 12:06 UTC. Time now 2017-Dec-15 21:56 UTC.
Position N 14°01' W 061°01'.

Type: Ship. MMSI: 311315000.

Date/timePositionNaut miles runAvg speedWind from/ knotsBaromVisibWave heightAir tempDewpointWater temp
2017-Dec-15 12:06N 14°01' W 061°01'1 5.6
2017-Dec-15 11:58N 14°02' W 061°01'1313.5
2017-Dec-15 11:02N 14°08' W 061°13'114.0
2017-Dec-15 10:58N 14°09' W 061°13'2113.4
2017-Dec-15 09:25N 14°27' W 061°24'613.9
2017-Dec-15 09:00N 14°33' W 061°26'713.7
2017-Dec-15 08:31N 14°39' W 061°28'2314.1
2017-Dec-15 06:51N 15°01' W 061°37'613.9
2017-Dec-15 06:23N 15°07' W 061°39'5613.9
2017-Dec-15 02:23N 16°00' W 061°55'1914.0
2017-Dec-15 01:00N 16°19' W 061°58'713.6
2017-Dec-15 00:30N 16°26' W 061°59'42 7.0
2017-Dec-14 18:30N 17°07' W 061°51'0 0.0
2017-Dec-14 17:59N 17°07' W 061°51'0 0.0
2017-Dec-14 17:29N 17°07' W 061°51'0 0.0
2017-Dec-14 16:59N 17°07' W 061°51'0 0.0
2017-Dec-14 16:29N 17°07' W 061°51'0 0.0
2017-Dec-14 15:59N 17°07' W 061°51'0 0.0
2017-Dec-14 14:59N 17°07' W 061°51'0 0.0
2017-Dec-14 14:29N 17°07' W 061°51'0 0.0
2017-Dec-14 13:59N 17°07' W 061°51'0 0.0
2017-Dec-14 13:29N 17°07' W 061°51'0 0.0
2017-Dec-14 12:59N 17°07' W 061°51'0 0.0
2017-Dec-14 12:29N 17°07' W 061°51'0 0.0
2017-Dec-14 12:00N 17°07' W 061°51'1 1.5
2017-Dec-14 11:30N 17°07' W 061°52'3 5.7
2017-Dec-14 11:00N 17°09' W 061°54'714.0
2017-Dec-14 10:30N 17°12' W 062°01'815.2
2017-Dec-14 10:00N 17°15' W 062°08'815.7
2017-Dec-14 09:30N 17°18' W 062°16'815.7
2017-Dec-14 09:01N 17°22' W 062°23'815.7
2017-Dec-14 08:30N 17°25' W 062°30'815.4
2017-Dec-14 08:00N 17°29' W 062°38'1715.5
2017-Dec-14 06:56N 17°36' W 062°53'715.4
2017-Dec-14 06:28N 17°39' W 062°60'815.5
2017-Dec-14 05:57N 17°43' W 063°08'815.3
2017-Dec-14 05:26N 17°46' W 063°15'715.6
2017-Dec-14 04:58N 17°49' W 063°22'815.1
2017-Dec-14 04:28N 17°52' W 063°29'815.7
2017-Dec-14 03:57N 17°56' W 063°37'7315.4
2017-Dec-13 23:12N 18°12' W 064°52'315.3
2017-Dec-13 23:00N 18°14' W 064°54'613.0
2017-Dec-13 22:30N 18°18' W 064°59'2 4.7
2017-Dec-13 21:58N 18°20' W 064°57'0 0.0
2017-Dec-13 21:22N 18°20' W 064°57'0 0.0
2017-Dec-13 20:58N 18°20' W 064°57'0 0.0
2017-Dec-13 20:28N 18°20' W 064°57'0 0.0
2017-Dec-13 19:58N 18°20' W 064°57'0 0.0
2017-Dec-13 19:10N 18°20' W 064°57'0 0.0
2017-Dec-13 18:58N 18°20' W 064°57'0 0.0
2017-Dec-13 18:28N 18°20' W 064°57'0 0.0
2017-Dec-13 17:58N 18°20' W 064°57'0 0.0
2017-Dec-13 17:28N 18°20' W 064°57'0 0.0
2017-Dec-13 16:58N 18°20' W 064°57'0 0.0
2017-Dec-13 16:28N 18°20' W 064°57'0 0.0
2017-Dec-13 15:58N 18°20' W 064°57'0 0.0
2017-Dec-13 15:28N 18°20' W 064°57'0 0.0
2017-Dec-13 14:58N 18°20' W 064°57'0 0.0
2017-Dec-13 14:28N 18°20' W 064°57'0 0.0
2017-Dec-13 13:58N 18°20' W 064°57'0 0.0
2017-Dec-13 13:16N 18°20' W 064°57'0 0.0
2017-Dec-13 12:56N 18°20' W 064°57'0 0.6
2017-Dec-13 12:30N 18°20' W 064°57'5 9.6
2017-Dec-13 12:00N 18°17' W 065°02'611.8
2017-Dec-13 11:29N 18°20' W 065°07'816.4
2017-Dec-13 11:00N 18°27' W 065°11'25716.1
2017-Dec-12 19:00N 22°18' W 067°12'2914.6 200 / 111012.010.8 26.019.928.0
2017-Dec-12 17:00N 22°42' W 067°30'10317.1 200 / 111013.010.8 26.019.928.0
2017-Dec-12 11:00N 24°12' W 068°24'25215.7 210 / 231014.010.8 23.021.527.0
2017-Dec-11 19:00N 27°54' W 070°36'17217.2 020 / 221018.010.8 22.013.425.0
2017-Dec-11 09:00N 30°24' W 072°12'18815.7 290 / 191022.010.8 17.011.525.0
2017-Dec-10 21:00N 33°18' W 073°36'4120.6 310 / 211021.0 12.0 2.925.0
2017-Dec-10 19:00N 33°54' W 074°00'11316.2 290 / 191020.010.8 12.0 2.925.0
2017-Dec-10 12:00N 35°36' W 075°00'8316.7 300 / 201018.010.8 6.5 2.917.0
2017-Dec-10 07:03N 36°49' W 075°48'010.1
2017-Dec-10 07:00N 36°49' W 075°48'510.1
2017-Dec-10 06:29N 36°52' W 075°53'510.0
2017-Dec-10 06:00N 36°56' W 075°58'611.7
2017-Dec-10 05:27N 37°01' W 076°03'10819.0
2017-Dec-09 23:44N 38°48' W 076°25'520.1
2017-Dec-09 23:30N 38°52' W 076°24'918.3
2017-Dec-09 23:00N 39°01' W 076°23'714.8
2017-Dec-09 22:30N 39°09' W 076°24'612.5
2017-Dec-09 22:00N 39°12' W 076°31'4 8.4
2017-Dec-09 21:31N 39°15' W 076°35'1 1.8
2017-Dec-09 20:58N 39°16' W 076°36'0 0.0
2017-Dec-09 20:28N 39°16' W 076°36'0 0.0
2017-Dec-09 19:58N 39°16' W 076°36'0 0.0
2017-Dec-09 19:28N 39°16' W 076°36'0 0.0
2017-Dec-09 18:58N 39°16' W 076°36'0 0.0
2017-Dec-09 18:28N 39°16' W 076°36'0 0.0
2017-Dec-09 17:58N 39°16' W 076°36'0 0.0
2017-Dec-09 17:28N 39°16' W 076°36'0 0.0
2017-Dec-09 16:58N 39°16' W 076°36'0 0.0
2017-Dec-09 16:28N 39°16' W 076°36'0 0.0
2017-Dec-09 15:55N 39°16' W 076°36'0 0.0
2017-Dec-09 15:28N 39°16' W 076°36'0 0.0
2017-Dec-09 14:58N 39°16' W 076°36'0 0.0
2017-Dec-09 14:28N 39°16' W 076°36'0 0.0
2017-Dec-09 13:58N 39°16' W 076°36'0 0.0
2017-Dec-09 13:22N 39°16' W 076°36'0 0.0
2017-Dec-09 12:58N 39°16' W 076°36'0 0.0
2017-Dec-09 12:28N 39°16' W 076°36'0 0.0
2017-Dec-09 11:52N 39°16' W 076°36'1 2.6
2017-Dec-09 11:30N 39°15' W 076°35'4 7.8
2017-Dec-09 11:00N 39°13' W 076°31'611.5
2017-Dec-09 10:30N 39°09' W 076°25'713.5
2017-Dec-09 10:01N 39°03' W 076°23'713.9
2017-Dec-09 09:30N 38°56' W 076°23'815.1
2017-Dec-09 08:59N 38°48' W 076°25'915.1
2017-Dec-09 08:25N 38°39' W 076°25'1215.2
2017-Dec-09 07:38N 38°28' W 076°23'2115.6
2017-Dec-09 06:17N 38°08' W 076°14'717.6
2017-Dec-09 05:53N 38°01' W 076°13'5316.4
2017-Dec-09 02:39N 37°08' W 076°09'417.9
2017-Dec-09 02:26N 37°05' W 076°06'613.6
2017-Dec-09 02:00N 37°00' W 076°02'510.8
2017-Dec-09 01:30N 36°56' W 075°57'5 9.7
2017-Dec-09 00:58N 36°53' W 075°52'8514.3
2017-Dec-08 19:00N 35°36' W 075°06'1212.0 360 / 271013.0 5.4 10.0 7.918.0
2017-Dec-08 18:00N 35°24' W 075°06'16414.9 030 / 261015.0 5.4 12.010.121.0
2017-Dec-08 07:00N 32°42' W 075°36'14014.0 040 / 211016.0 5.4 17.015.325.0
2017-Dec-07 21:00N 30°24' W 076°00'13414.8 260 / 131016.010.8 24.019.426.0
2017-Dec-07 12:00N 28°12' W 076°24'6713.4 240 / 111018.010.8 24.019.427.0
2017-Dec-07 07:00N 27°06' W 076°36'105 7.5 170 / 71019.010.8 24.021.027.0
2017-Dec-06 17:00N 25°48' W 077°54'58 2.9 120 / 101021.010.8 25.022.027.0
2017-Dec-05 21:00N 25°00' W 077°18'0 0.0 100 / 261022.010.8 27.019.327.0
2017-Dec-05 17:00N 25°00' W 077°18'   090 / 111023.010.8 25.020.528.0

Dump ship's entire track history